createdAt,value
2023-02-14T06:44:38.669Z,103287.53
2023-02-14T06:47:04.989Z,103283.19
2023-02-14T06:49:31.404Z,103289.50
2023-02-14T06:51:57.685Z,103279.31
2023-02-14T06:54:23.981Z,103276.88
2023-02-14T06:56:50.397Z,103287.66
2023-02-14T06:59:17.053Z,103277.59
2023-02-14T07:01:43.328Z,103283.03
2023-02-14T07:04:09.637Z,103289.25
2023-02-14T07:06:37.152Z,103283.69
2023-02-14T07:09:04.079Z,103283.63
2023-02-14T07:11:30.361Z,103283.06
2023-02-14T07:13:56.662Z,103285.69
2023-02-14T07:16:22.975Z,103275.28
2023-02-14T07:18:49.267Z,103275.16
2023-02-14T07:21:15.895Z,103282.28
2023-02-14T07:23:42.316Z,103276.78
2023-02-14T07:26:08.596Z,103279.00
2023-02-14T07:28:34.884Z,103272.16
2023-02-14T07:31:01.850Z,103276.31
2023-02-14T07:33:28.659Z,103285.09
2023-02-14T07:35:54.985Z,103285.91
2023-02-14T07:38:21.274Z,103287.47
2023-02-14T07:40:47.549Z,103285.84
2023-02-14T07:43:13.909Z,103283.34
2023-02-14T07:45:40.209Z,103275.47
2023-02-14T07:48:06.513Z,103275.88
2023-02-14T07:50:32.801Z,103284.72
2023-02-14T07:52:59.067Z,103271.56
2023-02-14T07:55:25.334Z,103281.31
2023-02-14T07:57:51.902Z,103271.75
2023-02-14T08:00:18.792Z,103271.94
2023-02-14T08:02:45.111Z,103277.06
2023-02-14T08:05:11.421Z,103274.56
2023-02-14T08:07:37.838Z,103281.72
2023-02-14T08:10:04.616Z,103275.69
2023-02-14T08:12:30.919Z,103282.66
2023-02-14T08:14:57.227Z,103281.91
2023-02-14T08:17:23.560Z,103293.31
2023-02-14T08:19:49.852Z,103288.09
2023-02-14T08:22:16.125Z,103293.34
2023-02-14T08:24:42.384Z,103288.22
2023-02-14T08:27:08.653Z,103296.22
2023-02-14T08:29:35.068Z,103302.44
2023-02-14T08:32:01.629Z,103309.50
2023-02-14T08:34:27.977Z,103303.53
2023-02-14T08:36:54.489Z,103312.25
2023-02-14T08:39:20.762Z,103304.69
2023-02-14T08:41:47.072Z,103309.84
2023-02-14T08:44:13.414Z,103304.69
2023-02-14T08:46:39.778Z,103311.88
2023-02-14T08:49:06.118Z,103318.00
2023-02-14T08:51:32.442Z,103316.06
2023-02-14T08:53:58.759Z,103313.44
2023-02-14T08:56:25.060Z,103318.88
2023-02-14T08:58:52.636Z,103317.56
2023-02-14T09:01:19.327Z,103315.34
2023-02-14T09:03:45.732Z,103318.59
2023-02-14T09:06:15.018Z,103315.78
2023-02-14T09:08:41.394Z,103311.38
2023-02-14T09:11:20.240Z,103314.91
2023-02-14T09:13:46.838Z,103313.16
2023-02-14T09:16:15.238Z,103312.47
2023-02-14T09:18:41.574Z,103325.09
2023-02-14T09:21:19.959Z,103329.34
2023-02-14T09:23:46.316Z,103323.97
2023-02-14T09:26:14.867Z,103322.53
2023-02-14T09:28:41.388Z,103320.72
2023-02-14T09:31:19.298Z,103311.84
2023-02-14T09:33:47.472Z,103317.13
2023-02-14T09:36:14.401Z,103320.72
2023-02-14T09:38:40.688Z,103324.69
2023-02-14T09:41:09.133Z,103321.84
2023-02-14T09:43:38.912Z,103319.09
2023-02-14T09:46:11.734Z,103322.78
2023-02-14T09:48:42.982Z,103319.41
2023-02-14T09:51:20.854Z,103319.25
2023-02-14T09:53:56.753Z,103314.28
2023-02-14T09:56:30.216Z,103325.66
2023-02-14T09:59:24.094Z,103320.31
2023-02-14T10:02:03.680Z,103322.22
2023-02-14T10:04:41.656Z,103318.03
2023-02-14T10:07:29.700Z,103323.59
2023-02-14T10:10:20.010Z,103325.19
2023-02-14T10:12:52.326Z,103324.56
2023-02-14T10:15:23.403Z,103323.75
2023-02-14T10:17:56.671Z,103320.81
2023-02-14T10:20:28.675Z,103324.34
2023-02-14T10:23:02.698Z,103320.66
2023-02-14T10:25:37.385Z,103324.19
2023-02-14T10:28:03.880Z,103322.47
2023-02-14T10:30:38.508Z,103314.84
2023-02-14T10:33:16.413Z,103315.22
2023-02-14T10:36:03.073Z,103310.00
2023-02-14T10:38:50.008Z,103309.91
2023-02-14T10:41:49.990Z,103311.66
2023-02-14T10:44:24.103Z,103303.16
2023-02-14T10:47:01.386Z,103300.47
2023-02-14T10:49:54.615Z,103304.91
2023-02-14T10:52:32.034Z,103299.00
2023-02-14T10:55:02.068Z,103294.81
2023-02-14T10:57:32.244Z,103294.06
2023-02-14T11:00:01.952Z,103292.34
2023-02-14T11:02:32.911Z,103304.03
2023-02-14T11:05:02.268Z,103301.97
2023-02-14T11:07:28.576Z,103292.44
2023-02-14T11:09:55.823Z,103298.53
2023-02-14T11:12:39.522Z,103294.31
2023-02-14T11:15:21.646Z,103294.69
2023-02-14T11:17:48.443Z,103286.03
2023-02-14T11:20:23.250Z,103291.94
2023-02-14T11:22:50.261Z,103290.59
2023-02-14T11:25:23.161Z,103285.59
2023-02-14T11:28:00.554Z,103286.53
2023-02-14T11:30:45.238Z,103283.78
2023-02-14T11:33:38.438Z,103279.41
2023-02-14T11:36:10.940Z,103270.84
2023-02-14T11:38:38.670Z,103271.88
2023-02-14T11:41:07.593Z,103277.41
2023-02-14T11:43:40.166Z,103278.28
2023-02-14T11:46:21.484Z,103270.50
2023-02-14T11:49:33.587Z,103269.22
2023-02-14T11:52:10.222Z,103268.56
2023-02-14T11:54:40.089Z,103269.94
2023-02-14T11:57:12.036Z,103266.94
2023-02-14T11:59:43.892Z,103263.19
2023-02-14T12:02:24.041Z,103261.44
2023-02-14T12:04:53.986Z,103256.75
2023-02-14T12:07:25.974Z,103252.75
2023-02-14T12:10:15.872Z,103255.91
2023-02-14T12:12:58.408Z,103250.50
2023-02-14T12:15:26.874Z,103243.47
2023-02-14T12:18:21.232Z,103239.97
2023-02-14T12:21:15.459Z,103238.50
2023-02-14T12:24:06.735Z,103228.81
2023-02-14T12:26:36.306Z,103223.34
2023-02-14T12:29:15.007Z,103222.91
2023-02-14T12:31:43.075Z,103219.00
2023-02-14T12:34:13.090Z,103216.38
2023-02-14T12:37:27.086Z,103208.69
2023-02-14T12:40:21.576Z,103199.31
2023-02-14T12:43:12.277Z,103203.66
2023-02-14T12:45:53.019Z,103201.03
2023-02-14T12:48:44.103Z,103193.88
2023-02-14T12:51:32.416Z,103190.47
2023-02-14T12:54:19.240Z,103177.31
2023-02-14T12:56:57.538Z,103178.75
2023-02-14T12:59:32.106Z,103174.50
2023-02-14T13:02:25.040Z,103177.91
2023-02-14T13:05:16.167Z,103174.72
2023-02-14T13:07:45.171Z,103173.75
2023-02-14T13:10:43.445Z,103168.44
2023-02-14T13:13:19.548Z,103168.03
2023-02-14T13:16:03.805Z,103164.41
2023-02-14T13:18:56.723Z,103166.53
2023-02-14T13:21:28.864Z,103167.66
2023-02-14T13:24:14.704Z,103157.28
2023-02-14T13:26:45.680Z,103163.91
2023-02-14T13:29:36.644Z,103153.63
2023-02-14T13:32:04.265Z,103159.16
2023-02-14T13:34:34.746Z,103154.72
2023-02-14T13:37:02.943Z,103150.44
2023-02-14T13:39:40.934Z,103153.28
2023-02-14T13:42:07.722Z,103150.94
2023-02-14T13:44:43.070Z,103153.41
2023-02-14T13:47:21.715Z,103151.59
2023-02-14T13:49:54.542Z,103147.56
2023-02-14T13:52:44.954Z,103142.34
2023-02-14T13:55:20.105Z,103137.53
2023-02-14T13:57:59.352Z,103139.72
2023-02-14T14:00:44.142Z,103147.13
2023-02-14T14:03:35.114Z,103145.19
2023-02-14T14:06:11.189Z,103146.88
2023-02-14T14:08:44.267Z,103147.75
2023-02-14T14:11:33.283Z,103146.25
2023-02-14T14:14:24.030Z,103142.97
2023-02-14T14:16:58.404Z,103134.19
2023-02-14T14:19:24.636Z,103134.50
2023-02-14T14:22:03.347Z,103138.16
2023-02-14T14:24:40.717Z,103132.78
2023-02-14T14:27:16.228Z,103128.25
2023-02-14T14:29:52.819Z,103126.25
2023-02-14T14:32:21.603Z,103127.88
2023-02-14T14:34:53.134Z,103127.34
2023-02-14T14:37:25.908Z,103129.91
2023-02-14T14:39:59.157Z,103135.31
2023-02-14T14:42:29.855Z,103130.03
2023-02-14T14:45:00.946Z,103128.97
2023-02-14T14:47:45.263Z,103121.66
2023-02-14T14:50:19.602Z,103117.56
2023-02-14T14:52:48.883Z,103113.28
2023-02-14T14:55:22.665Z,103124.25
2023-02-14T14:57:55.192Z,103119.97
2023-02-14T15:00:28.813Z,103115.88
2023-02-14T15:03:05.888Z,103116.25
2023-02-14T15:05:41.393Z,103114.66
2023-02-14T15:08:13.612Z,103112.47
2023-02-14T15:10:40.304Z,103100.41
2023-02-14T15:13:12.899Z,103114.13
2023-02-14T15:15:39.358Z,103105.88
2023-02-14T15:18:07.921Z,103095.75
2023-02-14T15:20:34.556Z,103102.50
2023-02-14T15:23:01.765Z,103091.97
2023-02-14T15:25:33.015Z,103089.72
2023-02-14T15:28:00.165Z,103089.06
2023-02-14T15:30:30.785Z,103088.41
2023-02-14T15:32:57.841Z,103088.19
2023-02-14T15:35:28.621Z,103089.00
2023-02-14T15:37:57.787Z,103081.03
2023-02-14T15:40:26.994Z,103089.63
2023-02-14T15:42:55.005Z,103076.44
2023-02-14T15:45:27.313Z,103073.91
2023-02-14T15:48:02.058Z,103082.47
2023-02-14T15:50:35.291Z,103074.31
2023-02-14T15:53:23.951Z,103073.66
2023-02-14T15:55:50.677Z,103071.78
2023-02-14T15:58:37.212Z,103065.28
2023-02-14T16:01:04.363Z,103058.06
2023-02-14T16:03:35.068Z,103060.00
2023-02-14T16:06:01.772Z,103058.19
2023-02-14T16:08:35.382Z,103062.44
2023-02-14T16:11:01.892Z,103057.03
2023-02-14T16:13:37.101Z,103058.72
2023-02-14T16:16:08.977Z,103059.56
2023-02-14T16:18:36.635Z,103059.66
2023-02-14T16:21:22.872Z,103062.22
2023-02-14T16:24:07.245Z,103055.03
2023-02-14T16:26:35.504Z,103054.28
2023-02-14T16:29:06.201Z,103055.09
2023-02-14T16:31:33.599Z,103057.53
2023-02-14T16:34:00.147Z,103056.69
2023-02-14T16:36:28.801Z,103055.94
2023-02-14T16:38:55.822Z,103055.81
2023-02-14T16:41:28.119Z,103061.09
2023-02-14T16:43:55.820Z,103057.63
2023-02-14T16:46:25.376Z,103054.06
2023-02-14T16:48:51.918Z,103058.19
2023-02-14T16:51:21.824Z,103060.03
2023-02-14T16:53:49.579Z,103063.22
2023-02-14T16:56:33.143Z,103057.97
2023-02-14T16:58:59.798Z,103063.09
2023-02-14T17:01:26.256Z,103062.97
2023-02-14T17:03:52.622Z,103069.84
2023-02-14T17:06:22.682Z,103064.09
2023-02-14T17:08:52.100Z,103058.59
2023-02-14T17:11:19.458Z,103059.19
2023-02-14T17:13:47.623Z,103056.09
2023-02-14T17:16:15.797Z,103061.59
2023-02-14T17:18:46.059Z,103060.91
2023-02-14T17:21:12.391Z,103058.19
2023-02-14T17:23:38.687Z,103055.44
2023-02-14T17:26:05.032Z,103057.94
2023-02-14T17:28:31.720Z,103055.91
2023-02-14T17:31:00.601Z,103060.69
2023-02-14T17:33:27.120Z,103057.84
2023-02-14T17:35:53.410Z,103051.81
2023-02-14T17:38:19.694Z,103052.53
2023-02-14T17:40:45.985Z,103051.75
2023-02-14T17:43:12.264Z,103051.50
2023-02-14T17:45:38.593Z,103046.16
2023-02-14T17:48:04.971Z,103048.81
2023-02-14T17:50:31.244Z,103054.97
2023-02-14T17:52:57.939Z,103052.50
2023-02-14T17:55:24.243Z,103054.06
2023-02-14T17:57:50.534Z,103046.88
2023-02-14T18:00:17.423Z,103048.47
2023-02-14T18:02:43.796Z,103038.69
2023-02-14T18:05:10.129Z,103031.97
2023-02-14T18:07:36.471Z,103030.84
2023-02-14T18:10:02.903Z,103030.78
2023-02-14T18:12:29.263Z,103030.56
2023-02-14T18:14:55.600Z,103027.16
2023-02-14T18:17:22.443Z,103020.91
2023-02-14T18:19:48.746Z,103023.53
2023-02-14T18:22:15.068Z,103025.44
2023-02-14T18:24:41.509Z,103020.69
2023-02-14T18:27:07.792Z,103016.38
2023-02-14T18:29:35.344Z,103017.81
2023-02-14T18:32:02.960Z,103006.81
2023-02-14T18:34:29.245Z,103011.38
2023-02-14T18:36:55.564Z,103000.63
2023-02-14T18:39:21.961Z,103012.13
2023-02-14T18:41:48.429Z,103002.75
2023-02-14T18:44:14.766Z,103006.94
2023-02-14T18:46:41.188Z,103005.28
2023-02-14T18:49:07.475Z,103007.53
2023-02-14T18:51:36.278Z,102997.91
2023-02-14T18:54:03.817Z,103000.38
2023-02-14T18:56:35.619Z,102991.50
2023-02-14T18:59:05.527Z,103004.94
2023-02-14T19:01:34.069Z,102992.75
2023-02-14T19:04:01.221Z,102990.13
2023-02-14T19:06:30.009Z,102988.50
2023-02-14T19:08:58.315Z,102991.91
2023-02-14T19:11:27.216Z,102982.25
2023-02-14T19:13:56.512Z,102980.63
2023-02-14T19:16:26.206Z,102980.84
2023-02-14T19:18:53.368Z,102980.22
2023-02-14T19:21:25.605Z,102970.75
2023-02-14T19:23:53.752Z,102977.78
2023-02-14T19:26:23.347Z,102971.00
2023-02-14T19:28:55.498Z,102969.25
2023-02-14T19:31:23.260Z,102974.00
2023-02-14T19:33:50.354Z,102972.50
2023-02-14T19:36:19.363Z,102969.88
2023-02-14T19:38:49.283Z,102972.50
2023-02-14T19:41:19.543Z,102967.84
2023-02-14T19:43:46.876Z,102974.81
2023-02-14T19:46:15.756Z,102975.72
2023-02-14T19:48:42.586Z,102977.69
2023-02-14T19:51:14.676Z,102982.63
2023-02-14T19:53:41.054Z,102975.47
2023-02-14T19:56:07.341Z,102964.44
2023-02-14T19:58:33.599Z,102969.81
2023-02-14T20:01:00.565Z,102974.34
2023-02-14T20:03:27.142Z,102959.44
2023-02-14T20:05:53.485Z,102961.13
2023-02-14T20:08:19.801Z,102962.91
2023-02-14T20:10:46.107Z,102962.91
2023-02-14T20:13:12.357Z,102962.91
2023-02-14T20:15:38.709Z,102964.38
2023-02-14T20:18:05.041Z,102959.13
2023-02-14T20:20:33.010Z,102952.19
2023-02-14T20:22:59.995Z,102956.75
2023-02-14T20:25:26.367Z,102952.34
2023-02-14T20:27:53.678Z,102942.53
2023-02-14T20:30:20.198Z,102931.56
2023-02-14T20:32:46.509Z,102936.78
2023-02-14T20:35:12.866Z,102939.28
2023-02-14T20:37:39.150Z,102928.06
